tititudorancea.com
Station Historical Data
Daily Summary for March 13, 2018 Units:  Metric    English   Both
« Previous Day
Next Day »
Daily Weekly Monthly Yearly Custom
  High: Low: Average:
Temperature: -17.8 °C 11.9 °C 15.9 °C
Dew Point: -17.8 °C 7.6 °C 9.2 °C
Humidity: Humidity % 42 % 66 %
Wind Speed: 0 km/h 4.5 km/h 12.6 km/h
Wind Gust: 0 km/h - -
Wind:- - SSW
Pressure: 0 hPa 1018.8 hPa -
Precipitation: 0 mm    
Historical Graphs
 
 
Ararat weather Find more about Weather in Ararat, AU


 



 


Tabular Data for March 13, 2018
Time Temperature Dew Point Pressure Wind Wind Speed Wind Gust Humidity Rainfall Rate (Hourly)
-17.8 °C -17.8 °C 0 hPa Calm     Humidity % 0 mm
00:00 13.1 °C 9.2 °C 1022.6 hPa South 6.3 km/h 9.3 km/h 77 % 0 mm
00:05 13.2 °C 9.4 °C 1022.6 hPa South 8.9 km/h 14.8 km/h 78 % 0 mm
00:10 13.2 °C 9.4 °C 1022.6 hPa North 8.4 km/h 11.1 km/h 78 % 0 mm
00:15 13.3 °C 9.5 °C 1022.6 hPa South 6.4 km/h 14.8 km/h 78 % 0 mm
00:20 13.3 °C 9.5 °C 1022.6 hPa South 7.4 km/h 9.3 km/h 78 % 0 mm
00:25 13.3 °C 9.6 °C 1022.6 hPa South 8.7 km/h 11.1 km/h 78 % 0 mm
00:30 13.3 °C 9.6 °C 1022.6 hPa South 7.9 km/h 11.3 km/h 78 % 0 mm
00:35 13.3 °C 9.4 °C 1022.6 hPa North 6.1 km/h 11.1 km/h 77 % 0 mm
00:40 13.3 °C 9.5 °C 1022.6 hPa South 8.9 km/h 13 km/h 78 % 0 mm
00:45 13.2 °C 9.4 °C 1022.2 hPa North 7.6 km/h 16.7 km/h 78 % 0 mm
00:50 13.2 °C 9.7 °C 1022.2 hPa North 8.9 km/h 13 km/h 79 % 0 mm
00:55 13.2 °C 9.8 °C 1022.2 hPa South 6.6 km/h 14.8 km/h 80 % 0 mm
01:00 13.2 °C 9.8 °C 1022.2 hPa South 12.1 km/h 16.7 km/h 80 % 0 mm
01:05 13.2 °C 9.8 °C 1022.2 hPa North 12.7 km/h 18.5 km/h 80 % 0 mm
01:10 13.2 °C 10 °C 1022.2 hPa South 12.1 km/h 18.5 km/h 81 % 0 mm
01:15 13.2 °C 9.8 °C 1022.2 hPa SSE 14 km/h 22.2 km/h 80 % 0 mm
01:20 13.3 °C 9.9 °C 1022.2 hPa SSW 11.7 km/h 20.4 km/h 80 % 0 mm
01:25 13.4 °C 10.1 °C 1022.2 hPa North 9.7 km/h 13 km/h 80 % 0 mm
01:30 13.5 °C 10.1 °C 1022.2 hPa South 11.6 km/h 18.5 km/h 80 % 0 mm
01:35 13.6 °C 10.2 °C 1022.2 hPa South 16.6 km/h 24.1 km/h 80 % 0 mm
01:40 13.6 °C 10.1 °C 1022.2 hPa North 11.4 km/h 20.4 km/h 79 % 0 mm
01:41 13.6 °C 10.1 °C 1022.2 hPa South 13.8 km/h 18.5 km/h 79 % 0 mm
01:46 13.7 °C 9.9 °C 1022.2 hPa SSW 7.6 km/h 16.7 km/h 78 % 0 mm
01:51 13.6 °C 9.8 °C 1022.2 hPa South 11.7 km/h 16.7 km/h 78 % 0 mm
01:56 13.6 °C 9.8 °C 1022.2 hPa South 10.1 km/h 16.1 km/h 78 % 0 mm
02:01 13.6 °C 9.7 °C 1021.9 hPa North 11.3 km/h 16.1 km/h 77 % 0 mm
02:06 13.6 °C 9.4 °C 1021.9 hPa South 13.7 km/h 20.4 km/h 76 % 0 mm
02:11 13.7 °C 9.3 °C 1021.9 hPa SSW 10 km/h 16.1 km/h 75 % 0 mm
02:16 13.7 °C 9.2 °C 1021.9 hPa South 6.6 km/h 9.3 km/h 74 % 0 mm
02:21 13.7 °C 8.9 °C 1021.9 hPa SSW 13.2 km/h 20.4 km/h 73 % 0 mm
02:26 13.8 °C 8.8 °C 1021.9 hPa South 10.1 km/h 18.5 km/h 72 % 0 mm
02:31 13.8 °C 8.8 °C 1021.6 hPa SSW 12.7 km/h 18.5 km/h 72 % 0 mm
02:36 13.8 °C 8.8 °C 1021.6 hPa SSW 7.2 km/h 9.7 km/h 72 % 0 mm
02:41 13.8 °C 8.9 °C 1021.6 hPa South 9.3 km/h 13 km/h 72 % 0 mm
02:46 13.8 °C 9.1 °C 1021.6 hPa North 10.5 km/h 13 km/h 73 % 0 mm
02:51 13.8 °C 9.1 °C 1021.6 hPa South 12.9 km/h 18.5 km/h 73 % 0 mm
02:56 13.8 °C 9.1 °C 1021.6 hPa North 8.9 km/h 14.8 km/h 73 % 0 mm
03:01 13.8 °C 9.1 °C 1021.6 hPa South 5.5 km/h 7.4 km/h 73 % 0 mm
03:06 13.8 °C 9.1 °C 1021.6 hPa SSW 7.2 km/h 12.9 km/h 73 % 0 mm
03:11 13.8 °C 9 °C 1021.6 hPa North 8.2 km/h 13 km/h 73 % 0 mm
03:16 13.8 °C 9 °C 1021.6 hPa North 11.1 km/h 18.5 km/h 73 % 0 mm
03:21 13.8 °C 9.2 °C 1021.6 hPa North 11.9 km/h 16.7 km/h 74 % 0 mm
03:26 13.8 °C 9 °C 1021.6 hPa SSW 12.1 km/h 14.8 km/h 73 % 0 mm
03:31 13.7 °C 8.9 °C 1021.6 hPa SSW 13.2 km/h 18.5 km/h 73 % 0 mm
03:36 13.7 °C 8.9 °C 1021.6 hPa South 7.6 km/h 13 km/h 73 % 0 mm
03:41 13.7 °C 8.9 °C 1021.6 hPa South 10.3 km/h 14.8 km/h 73 % 0 mm
03:46 13.7 °C 8.9 °C 1021.6 hPa South 9.5 km/h 14.8 km/h 73 % 0 mm
03:51 13.7 °C 8.9 °C 1021.2 hPa South 4.5 km/h 11.3 km/h 73 % 0 mm
03:56 13.7 °C 8.9 °C 1021.2 hPa North 9 km/h 14.5 km/h 73 % 0 mm
04:01 13.7 °C 8.9 °C 1021.2 hPa South 8.5 km/h 11.1 km/h 73 % 0 mm
04:06 13.7 °C 8.9 °C 1021.2 hPa South 10.3 km/h 14.8 km/h 73 % 0 mm
04:11 13.7 °C 8.9 °C 1021.2 hPa North 8.7 km/h 13 km/h 73 % 0 mm
04:16 13.7 °C 8.9 °C 1021.2 hPa South 5.1 km/h 9.3 km/h 73 % 0 mm
04:21 13.6 °C 8.8 °C 1021.2 hPa North 7.6 km/h 13 km/h 73 % 0 mm
04:26 13.6 °C 8.8 °C 1021.2 hPa SSW 5.8 km/h 8 km/h 73 % 0 mm
04:31 13.6 °C 8.8 °C 1021.2 hPa SSW 9 km/h 13 km/h 73 % 0 mm
04:36 13.6 °C 8.8 °C 1021.2 hPa SSW 9.7 km/h 14.8 km/h 73 % 0 mm
04:41 13.6 °C 9 °C 1021.2 hPa SSW 7.4 km/h 11.1 km/h 74 % 0 mm
04:46 13.5 °C 8.9 °C 1021.2 hPa South 10.8 km/h 16.7 km/h 74 % 0 mm
04:51 13.5 °C 8.9 °C 1021.2 hPa South 9.7 km/h 13 km/h 74 % 0 mm
04:56 13.5 °C 8.8 °C 1020.9 hPa North 9.3 km/h 14.8 km/h 73 % 0 mm
05:01 13.5 °C 8.8 °C 1020.9 hPa South 10.5 km/h 18.5 km/h 73 % 0 mm
05:06 13.5 °C 8.8 °C 1020.9 hPa South 6.9 km/h 9.3 km/h 73 % 0 mm
05:11 13.5 °C 8.8 °C 1021.2 hPa SSW 11.4 km/h 18.5 km/h 73 % 0 mm
05:16 13.5 °C 8.8 °C 1020.9 hPa South 9 km/h 20.9 km/h 73 % 0 mm
05:21 13.5 °C 8.8 °C 1021.2 hPa South 6.4 km/h 11.1 km/h 73 % 0 mm
05:26 13.4 °C 8.7 °C 1021.2 hPa North 8 km/h 14.8 km/h 73 % 0 mm
05:31 13.4 °C 8.7 °C 1021.2 hPa North 12.7 km/h 16.7 km/h 73 % 0 mm
05:36 13.3 °C 8.6 °C 1021.2 hPa SSW 11.6 km/h 16.7 km/h 73 % 0 mm
05:41 13.3 °C 8.7 °C 1021.2 hPa North 12.9 km/h 29.6 km/h 74 % 0 mm
05:46 13.3 °C 8.7 °C 1021.2 hPa North 10.8 km/h 14.8 km/h 74 % 0 mm
05:51 13.3 °C 8.7 °C 1021.2 hPa South 10.6 km/h 14.8 km/h 74 % 0 mm
05:56 13.3 °C 9 °C 1021.2 hPa SSW 14 km/h 22.2 km/h 75 % 0 mm
06:01 13.3 °C 9 °C 1021.2 hPa SSW 16.7 km/h 20.4 km/h 75 % 0 mm
06:06 13.4 °C 9.1 °C 1021.2 hPa SSW 11.1 km/h 19.3 km/h 75 % 0 mm
06:11 13.3 °C 9 °C 1021.2 hPa South 12.7 km/h 18.5 km/h 75 % 0 mm
06:16 13.3 °C 9.1 °C 1021.2 hPa South 9.3 km/h 18.5 km/h 76 % 0 mm
06:17 13.3 °C 9.1 °C 1021.2 hPa South 9.3 km/h 18.5 km/h 76 % 0 mm
06:22 13.2 °C 9.3 °C 1021.2 hPa SSW 10.6 km/h 16.7 km/h 77 % 0 mm
06:27 13.1 °C 9.6 °C 1021.2 hPa North 8.4 km/h 20.4 km/h 79 % 0 mm
06:32 13.1 °C 9.7 °C 1021.2 hPa North 12.7 km/h 24.1 km/h 80 % 0 mm
06:37 13.1 °C 9.9 °C 1021.2 hPa SSW 14.8 km/h 18.5 km/h 81 % 0 mm
06:42 13 °C 9.8 °C 1021.2 hPa SSW 11.3 km/h 18.5 km/h 81 % 0 mm
06:47 13 °C 10 °C 1021.6 hPa SSW 9.7 km/h 18.5 km/h 82 % 0 mm
06:52 12.9 °C 10.5 °C 1021.6 hPa North 9 km/h 13 km/h 85 % 0 mm
06:57 12.9 °C 9.9 °C 1021.6 hPa South 7.7 km/h 12.9 km/h 82 % 0 mm
07:02 12.8 °C 9.8 °C 1021.6 hPa North 11.4 km/h 14.8 km/h 82 % 0 mm
07:07 12.8 °C 9.9 °C 1021.6 hPa SSW 7.9 km/h 11.3 km/h 83 % 0 mm
07:12 12.7 °C 9.8 °C 1021.6 hPa SSW 10 km/h 16.7 km/h 83 % 0 mm
07:17 12.6 °C 10 °C 1021.6 hPa North 12.9 km/h 16.7 km/h 84 % 0 mm
07:22 12.6 °C 9.9 °C 1021.9 hPa SSW 6.3 km/h 11.3 km/h 84 % 0 mm
07:27 12.5 °C 10.1 °C 1021.9 hPa SSW 7.7 km/h 11.1 km/h 85 % 0 mm
07:32 12.5 °C 10.1 °C 1021.9 hPa North 12.4 km/h 16.7 km/h 85 % 0 mm
07:37 12.5 °C 10.2 °C 1021.9 hPa South 10.5 km/h 14.8 km/h 86 % 0 mm
07:42 12.6 °C 10.3 °C 1021.9 hPa South 10 km/h 14.8 km/h 86 % 0 mm
07:47 12.6 °C 10.3 °C 1021.9 hPa North 8.4 km/h 11.1 km/h 86 % 0 mm
07:52 12.6 °C 10.3 °C 1021.9 hPa SSW 5.3 km/h 13 km/h 86 % 0 mm
07:57 12.7 °C 10.4 °C 1021.9 hPa SSE 9.8 km/h 14.8 km/h 86 % 0 mm
08:02 12.7 °C 10.2 °C 1021.9 hPa SSW 9.8 km/h 14.8 km/h 85 % 0 mm
08:07 12.7 °C 10.3 °C 1021.9 hPa South 13.8 km/h 20.4 km/h 85 % 0 mm
08:12 12.8 °C 10.2 °C 1022.2 hPa South 10.9 km/h 16.7 km/h 84 % 0 mm
08:17 12.9 °C 10.2 °C 1022.2 hPa South 10.1 km/h 14.8 km/h 84 % 0 mm
08:22 13 °C 10.2 °C 1022.2 hPa North 9.5 km/h 14.8 km/h 83 % 0 mm
08:27 13.1 °C 10.1 °C 1022.2 hPa North 7.4 km/h 13 km/h 82 % 0 mm
08:32 13.3 °C 10.1 °C 1022.2 hPa South 11.1 km/h 16.1 km/h 81 % 0 mm
08:37 13.4 °C 10.1 °C 1022.2 hPa South 12.9 km/h 25.9 km/h 80 % 0 mm
08:42 13.6 °C 10 °C 1022.2 hPa SSW 17.4 km/h 22.5 km/h 79 % 0 mm
08:47 13.7 °C 9.9 °C 1022.2 hPa SSE 11.6 km/h 18.5 km/h 78 % 0 mm
08:52 13.7 °C 9.8 °C 1022.2 hPa South 10.5 km/h 16.7 km/h 77 % 0 mm
08:57 13.8 °C 9.8 °C 1022.2 hPa North 12.4 km/h 18.5 km/h 77 % 0 mm
09:02 13.9 °C 10.2 °C 1022.2 hPa SSW 13.2 km/h 18.5 km/h 78 % 0 mm
09:07 14.1 °C 10.1 °C 1022.2 hPa South 15.6 km/h 20.4 km/h 77 % 0 mm
09:12 14.2 °C 10.1 °C 1022.2 hPa South 18.8 km/h 29.6 km/h 76 % 0 mm
09:17 14.3 °C 10.2 °C 1022.6 hPa SSW 11.3 km/h 22.2 km/h 76 % 0 mm
09:22 14.6 °C 10.2 °C 1022.2 hPa SSW 20 km/h 31.5 km/h 75 % 0 mm
09:27 14.8 °C 10 °C 1022.2 hPa South 17.4 km/h 31.5 km/h 73 % 0 mm
09:32 15.2 °C 10.2 °C 1022.6 hPa South 15.9 km/h 25.9 km/h 72 % 0 mm
09:37 14.8 °C 9.8 °C 1022.6 hPa South 22.2 km/h 27.8 km/h 72 % 0 mm
09:42 14.7 °C 9.7 °C 1022.6 hPa South 11.6 km/h 18.5 km/h 72 % 0 mm
09:47 14.8 °C 9.6 °C 1022.6 hPa SSW 19.3 km/h 27.8 km/h 71 % 0 mm
09:52 14.7 °C 9.7 °C 1022.6 hPa SSW 14.3 km/h 22.5 km/h 72 % 0 mm
09:57 14.7 °C 9.4 °C 1022.6 hPa North 16.3 km/h 25.9 km/h 71 % 0 mm
10:02 14.8 °C 9.6 °C 1022.6 hPa South 10.6 km/h 18.5 km/h 71 % 0 mm
10:07 14.9 °C 9.7 °C 1022.6 hPa South 14.5 km/h 33.3 km/h 71 % 0 mm
10:12 15.1 °C 9.7 °C 1022.6 hPa North 16.7 km/h 20.4 km/h 70 % 0 mm
10:17 15.2 °C 9.6 °C 1022.6 hPa SSW 21.1 km/h 29.6 km/h 69 % 0 mm
10:22 15.1 °C 9.4 °C 1022.6 hPa North 14.2 km/h 18.5 km/h 69 % 0 mm
10:27 15.6 °C 9.7 °C 1022.6 hPa South 20 km/h 29.6 km/h 68 % 0 mm
10:32 15.7 °C 9.6 °C 1022.6 hPa South 13.2 km/h 18.5 km/h 67 % 0 mm
10:37 15.7 °C 8.9 °C 1022.6 hPa SSW 10.5 km/h 18.5 km/h 64 % 0 mm
10:42 16 °C 9.2 °C 1022.6 hPa SSE 18.8 km/h 29.6 km/h 64 % 0 mm
10:47 16.3 °C 8.7 °C 1022.6 hPa South 20.6 km/h 24.1 km/h 61 % 0 mm
10:52 16.3 °C 9 °C 1022.6 hPa SSE 17.2 km/h 25.9 km/h 62 % 0 mm
10:57 16.2 °C 8.6 °C 1022.6 hPa South 19.6 km/h 29.6 km/h 61 % 0 mm
11:02 16.6 °C 9.3 °C 1022.6 hPa SE 12.2 km/h 20.4 km/h 62 % 0 mm
11:07 17 °C 9.2 °C 1022.6 hPa South 13.2 km/h 22.5 km/h 60 % 0 mm
11:12 16.9 °C 9.1 °C 1022.6 hPa South 14 km/h 22.5 km/h 60 % 0 mm
11:17 17.2 °C 9.1 °C 1022.6 hPa SSE 17.1 km/h 27.4 km/h 59 % 0 mm
11:22 17.9 °C 9 °C 1022.6 hPa SSE 20.8 km/h 31.5 km/h 56 % 0 mm
11:27 17.9 °C 9.1 °C 1022.6 hPa SSE 11.6 km/h 31.5 km/h 56 % 0 mm
11:32 18.2 °C 9.8 °C 1022.6 hPa South 15.8 km/h 29.6 km/h 58 % 0 mm
11:37 17.6 °C 9.7 °C 1022.6 hPa North 12.7 km/h 19.3 km/h 60 % 0 mm
11:42 17.2 °C 9.6 °C 1022.6 hPa SSW 7.6 km/h 22.2 km/h 61 % 0 mm
11:48 17.9 °C 10 °C 1022.6 hPa SSW 18.2 km/h 20.9 km/h 60 % 0 mm
11:53 18.1 °C 9.9 °C 1022.6 hPa South 16.7 km/h 22.5 km/h 59 % 0 mm
11:58 17.6 °C 9.7 °C 1022.2 hPa South 14 km/h 24.1 km/h 60 % 0 mm
12:03 17.9 °C 9.1 °C 1022.2 hPa South 16.6 km/h 27.8 km/h 56 % 0 mm
12:07 18 °C 9.9 °C 1022.2 hPa South 9 km/h 29.6 km/h 59 % 0 mm
12:13 18.2 °C 9.5 °C 1022.2 hPa South 20.1 km/h 22.2 km/h 57 % 0 mm
12:18 17.9 °C 9.3 °C 1022.2 hPa SSE 18.2 km/h 37 km/h 57 % 0 mm
12:22 18.3 °C 9.3 °C 1022.2 hPa South 21.6 km/h 25.9 km/h 56 % 0 mm
12:27 18.3 °C 9.7 °C 1022.2 hPa South 14 km/h 31.5 km/h 57 % 0 mm
12:33 18.4 °C 9.2 °C 1021.9 hPa SSW 18.3 km/h 25.9 km/h 55 % 0 mm
12:38 18.6 °C 9.3 °C 1021.9 hPa SSE 12.7 km/h 29 km/h 55 % 0 mm
12:43 18.9 °C 8.8 °C 1021.9 hPa South 18.2 km/h 32.2 km/h 52 % 0 mm
12:48 19.2 °C 9.6 °C 1021.9 hPa North 19.5 km/h 37 km/h 54 % 0 mm
12:53 18.8 °C 9.6 °C 1021.6 hPa South 14.6 km/h 27.8 km/h 55 % 0 mm
12:58 18.6 °C 9.1 °C 1021.6 hPa SSW 17.1 km/h 29.6 km/h 54 % 0 mm
13:03 19.1 °C 9.3 °C 1021.6 hPa South 10 km/h 18.5 km/h 53 % 0 mm
13:08 19.5 °C 9.1 °C 1021.6 hPa South 15 km/h 18.5 km/h 51 % 0 mm
13:13 19.4 °C 8.7 °C 1021.2 hPa SSW 18.5 km/h 20.4 km/h 50 % 0 mm
13:18 19.4 °C 9.3 °C 1021.6 hPa South 14.6 km/h 29.6 km/h 52 % 0 mm
13:23 19.9 °C 9.2 °C 1021.6 hPa SSE 17.2 km/h 19.3 km/h 50 % 0 mm
13:28 20.1 °C 8.8 °C 1021.2 hPa ESE 12.1 km/h 22.5 km/h 48 % 0 mm
13:33 20.4 °C 8.7 °C 1021.2 hPa SSE 14.2 km/h 20.4 km/h 47 % 0 mm
13:38 20.6 °C 8.9 °C 1021.2 hPa SE 12.9 km/h 24.1 km/h 47 % 0 mm
13:43 20.7 °C 8.7 °C 1020.9 hPa SSW 12.4 km/h 25.7 km/h 46 % 0 mm
13:48 20.4 °C 8.4 °C 1020.9 hPa South 14.5 km/h 22.2 km/h 46 % 0 mm
13:53 20.5 °C 8.5 °C 1020.9 hPa SSW 28.3 km/h 40.7 km/h 46 % 0 mm
13:58 20.4 °C 8.4 °C 1020.9 hPa SE 13 km/h 22.2 km/h 46 % 0 mm
14:03 20.9 °C 8.5 °C 1020.9 hPa South 14.8 km/h 20.4 km/h 45 % 0 mm
14:08 20.7 °C 8.3 °C 1020.9 hPa SSW 20.9 km/h 27.8 km/h 45 % 0 mm
14:13 20.8 °C 8.4 °C 1020.5 hPa SSE 15.3 km/h 20.4 km/h 45 % 0 mm
14:18 20.9 °C 8.2 °C 1020.5 hPa SSW 11.4 km/h 18.5 km/h 44 % 0 mm
14:23 21.1 °C 7.7 °C 1020.5 hPa SSE 13 km/h 18.5 km/h 42 % 0 mm
14:28 21 °C 7.6 °C 1020.5 hPa South 18.3 km/h 27.8 km/h 42 % 0 mm
14:33 21.1 °C 8.1 °C 1020.2 hPa South 8.5 km/h 16.1 km/h 43 % 0 mm
14:38 21.4 °C 8.3 °C 1020.2 hPa SSW 11.4 km/h 27.4 km/h 43 % 0 mm
14:43 21.4 °C 8.3 °C 1020.2 hPa SSE 15.4 km/h 22.2 km/h 43 % 0 mm
14:48 21.6 °C 8.5 °C 1020.2 hPa South 12.7 km/h 18.5 km/h 43 % 0 mm
14:53 21.4 °C 8.7 °C 1020.2 hPa South 9.7 km/h 20.4 km/h 44 % 0 mm
14:58 21.5 °C 8.7 °C 1020.2 hPa South 10.9 km/h 22.2 km/h 44 % 0 mm
15:03 21.4 °C 8.3 °C 1020.2 hPa SSE 19.3 km/h 25.9 km/h 43 % 0 mm
15:08 21.3 °C 8.9 °C 1019.9 hPa South 12.6 km/h 18.5 km/h 45 % 0 mm
15:13 21.6 °C 8.8 °C 1020.2 hPa South 15.6 km/h 31.5 km/h 44 % 0 mm
15:18 21.8 °C 9.1 °C 1020.2 hPa SSE 16.4 km/h 24.1 km/h 44 % 0 mm
15:23 21.4 °C 9 °C 1019.9 hPa SSE 14.5 km/h 24.1 km/h 45 % 0 mm
15:28 21.7 °C 9.3 °C 1019.9 hPa South 16.4 km/h 29.6 km/h 45 % 0 mm
15:33 21.7 °C 8.9 °C 1019.9 hPa South 15 km/h 29.6 km/h 44 % 0 mm
15:38 21.4 °C 8.6 °C 1019.9 hPa SSW 9.5 km/h 18.5 km/h 44 % 0 mm
15:43 21.4 °C 8.9 °C 1019.9 hPa South 24.9 km/h 31.5 km/h 45 % 0 mm
15:48 21.3 °C 9.2 °C 1019.9 hPa SSW 11.7 km/h 20.4 km/h 46 % 0 mm
15:53 21.4 °C 8.9 °C 1019.9 hPa SW 18.3 km/h 27.8 km/h 45 % 0 mm
15:58 21.4 °C 8.9 °C 1019.5 hPa SSW 13.7 km/h 20.4 km/h 45 % 0 mm
16:03 21.6 °C 9.1 °C 1019.5 hPa South 12.6 km/h 22.2 km/h 45 % 0 mm
16:08 21.7 °C 9.3 °C 1019.5 hPa SSW 18.5 km/h 25.9 km/h 45 % 0 mm
16:13 21.2 °C 9.1 °C 1019.5 hPa South 13.8 km/h 22.2 km/h 46 % 0 mm
16:18 21.3 °C 9.2 °C 1019.5 hPa SSE 15.9 km/h 25.9 km/h 46 % 0 mm
16:23 21.6 °C 9.4 °C 1019.5 hPa SSE 8.2 km/h 16.7 km/h 46 % 0 mm
16:28 21.5 °C 9.4 °C 1019.5 hPa South 15.1 km/h 22.2 km/h 46 % 0 mm
16:33 21.3 °C 8.8 °C 1019.2 hPa SSW 18.3 km/h 25.9 km/h 45 % 0 mm
16:38 21.1 °C 9.3 °C 1019.2 hPa South 17.4 km/h 24.1 km/h 47 % 0 mm
16:43 21.2 °C 9.1 °C 1019.2 hPa South 16.9 km/h 25.9 km/h 46 % 0 mm
16:48 21.1 °C 9.1 °C 1019.2 hPa SSW 18.2 km/h 25.9 km/h 46 % 0 mm
16:53 20.9 °C 9.2 °C 1019.2 hPa SSW 22.2 km/h 31.5 km/h 47 % 0 mm
16:58 21 °C 9.3 °C 1019.2 hPa SW 16.7 km/h 18.5 km/h 47 % 0 mm
17:03 21.1 °C 9 °C 1019.2 hPa South 18.5 km/h 29.6 km/h 46 % 0 mm
17:08 21 °C 9.3 °C 1019.2 hPa South 21.6 km/h 24.1 km/h 47 % 0 mm
17:13 21.1 °C 9.3 °C 1019.2 hPa South 14.2 km/h 20.4 km/h 47 % 0 mm
17:18 21.1 °C 9.3 °C 1019.2 hPa SSW 13 km/h 27.4 km/h 47 % 0 mm
17:23 20.8 °C 9.1 °C 1019.2 hPa SSE 16.4 km/h 22.5 km/h 47 % 0 mm
17:28 20.9 °C 8.8 °C 1019.2 hPa South 18 km/h 27.8 km/h 46 % 0 mm
17:33 20.9 °C 8.9 °C 1019.2 hPa SSE 17.7 km/h 27.4 km/h 46 % 0 mm
17:38 21.1 °C 9.1 °C 1019.2 hPa South 12.1 km/h 22.5 km/h 46 % 0 mm
17:43 21.1 °C 9.1 °C 1019.2 hPa SSE 18.5 km/h 31.5 km/h 46 % 0 mm
17:48 20.7 °C 8.7 °C 1019.2 hPa South 19 km/h 31.5 km/h 46 % 0 mm
17:53 20.7 °C 8.6 °C 1019.2 hPa SSE 18.3 km/h 35.2 km/h 46 % 0 mm
17:58 20.7 °C 8.9 °C 1018.8 hPa North 10.1 km/h 20.4 km/h 47 % 0 mm
18:03 20.3 °C 9.3 °C 1019.2 hPa South 18.3 km/h 35.2 km/h 49 % 0 mm
18:08 20 °C 9.3 °C 1019.2 hPa SSW 22.9 km/h 31.5 km/h 50 % 0 mm
18:13 19.8 °C 9.4 °C 1019.2 hPa South 15.4 km/h 27.8 km/h 51 % 0 mm
18:18 19.9 °C 9.4 °C 1019.2 hPa SSW 14.3 km/h 20.4 km/h 51 % 0 mm
18:23 19.9 °C 9.4 °C 1019.2 hPa North 14.5 km/h 25.9 km/h 51 % 0 mm
18:28 19.9 °C 9.7 °C 1019.2 hPa SSE 16.3 km/h 27.4 km/h 52 % 0 mm
18:33 19.5 °C 9.4 °C 1019.5 hPa South 14.8 km/h 25.9 km/h 52 % 0 mm
18:38 19.3 °C 9.5 °C 1019.2 hPa SSE 14.6 km/h 24.1 km/h 53 % 0 mm
18:43 19.2 °C 9.3 °C 1019.5 hPa SSW 17.7 km/h 27.8 km/h 53 % 0 mm
18:48 19 °C 9.5 °C 1019.5 hPa SSE 14.6 km/h 24.1 km/h 54 % 0 mm
18:53 19 °C 9.5 °C 1019.5 hPa South 15.8 km/h 24.1 km/h 54 % 0 mm
18:58 18.9 °C 9.4 °C 1019.5 hPa SSE 16.7 km/h 20.4 km/h 54 % 0 mm
19:03 18.8 °C 9.6 °C 1019.5 hPa South 12.9 km/h 18.5 km/h 55 % 0 mm
19:08 18.6 °C 9.4 °C 1019.5 hPa South 17.5 km/h 25.9 km/h 55 % 0 mm
19:13 18.4 °C 9.2 °C 1019.5 hPa SSW 13.4 km/h 24.1 km/h 55 % 0 mm
19:18 18.3 °C 9.1 °C 1019.5 hPa South 12.9 km/h 24.1 km/h 55 % 0 mm
19:23 18.2 °C 9.3 °C 1019.5 hPa South 11.6 km/h 22.2 km/h 56 % 0 mm
19:28 18 °C 9.1 °C 1019.5 hPa SSW 13.5 km/h 20.9 km/h 56 % 0 mm
19:33 17.7 °C 9.3 °C 1019.5 hPa South 12.6 km/h 18.5 km/h 58 % 0 mm
19:38 17.6 °C 9.2 °C 1019.5 hPa South 10.8 km/h 16.7 km/h 58 % 0 mm
19:43 17.4 °C 9.3 °C 1019.5 hPa South 11.4 km/h 18.5 km/h 59 % 0 mm
19:48 17.2 °C 9.1 °C 1019.5 hPa South 9.7 km/h 14.8 km/h 59 % 0 mm
19:53 17.1 °C 9.2 °C 1019.5 hPa South 9.3 km/h 13 km/h 60 % 0 mm
19:58 16.9 °C 9.4 °C 1019.5 hPa South 9.7 km/h 18.5 km/h 61 % 0 mm
20:03 16.8 °C 9.2 °C 1019.9 hPa South 10.1 km/h 13 km/h 61 % 0 mm
20:08 16.7 °C 9.1 °C 1019.9 hPa South 12.9 km/h 16.7 km/h 61 % 0 mm
20:13 16.6 °C 9.2 °C 1019.9 hPa South 10 km/h 18.5 km/h 62 % 0 mm
20:18 16.4 °C 9.1 °C 1019.9 hPa South 8.9 km/h 14.8 km/h 62 % 0 mm
20:23 16.3 °C 9.2 °C 1019.9 hPa South 6 km/h 20.4 km/h 63 % 0 mm
20:28 16.2 °C 9.3 °C 1019.9 hPa South 10.1 km/h 18.5 km/h 64 % 0 mm
20:33 16 °C 9.4 °C 1019.9 hPa North 12.6 km/h 18.5 km/h 65 % 0 mm
20:38 15.9 °C 9.3 °C 1020.2 hPa SSW 6.6 km/h 14.8 km/h 65 % 0 mm
20:43 15.8 °C 9.4 °C 1020.2 hPa South 8 km/h 14.8 km/h 66 % 0 mm
20:48 15.6 °C 9.3 °C 1020.2 hPa South 9.8 km/h 12.9 km/h 66 % 0 mm
20:53 15.4 °C 9.3 °C 1020.2 hPa SSW 10.8 km/h 18.5 km/h 67 % 0 mm
20:58 15.3 °C 9.2 °C 1019.9 hPa South 9.8 km/h 18.5 km/h 67 % 0 mm
21:03 15.2 °C 9.3 °C 1020.2 hPa North 10 km/h 18.5 km/h 68 % 0 mm
21:08 15.1 °C 9.2 °C 1020.2 hPa South 10 km/h 14.8 km/h 68 % 0 mm
21:13 14.9 °C 9.1 °C 1020.5 hPa SSW 10 km/h 18.5 km/h 68 % 0 mm
21:18 14.8 °C 9.2 °C 1020.5 hPa South 13.8 km/h 17.7 km/h 69 % 0 mm
21:23 14.7 °C 9.1 °C 1020.5 hPa South 11.6 km/h 24.1 km/h 69 % 0 mm
21:28 14.6 °C 9 °C 1020.5 hPa South 15 km/h 18.5 km/h 69 % 0 mm
21:33 14.5 °C 9.1 °C 1020.5 hPa North 13.2 km/h 24.1 km/h 70 % 0 mm
21:38 14.4 °C 9 °C 1020.5 hPa SSW 10.9 km/h 20.4 km/h 70 % 0 mm
21:43 14.2 °C 9.1 °C 1020.5 hPa South 8.7 km/h 14.8 km/h 71 % 0 mm
21:48 14.1 °C 8.9 °C 1020.5 hPa South 11.1 km/h 16.7 km/h 71 % 0 mm
21:53 13.9 °C 9 °C 1020.5 hPa South 11.7 km/h 14.8 km/h 72 % 0 mm
21:58 13.8 °C 8.9 °C 1020.9 hPa SSW 10.6 km/h 18.5 km/h 72 % 0 mm
22:03 13.7 °C 8.9 °C 1020.9 hPa SSW 10.9 km/h 18.5 km/h 73 % 0 mm
22:08 13.6 °C 8.8 °C 1020.5 hPa North 9.7 km/h 18.5 km/h 73 % 0 mm
22:13 13.5 °C 8.9 °C 1020.5 hPa North 12.7 km/h 22.2 km/h 74 % 0 mm
22:18 13.4 °C 8.9 °C 1020.5 hPa North 13.4 km/h 18.5 km/h 74 % 0 mm
22:23 13.4 °C 8.8 °C 1020.5 hPa SSW 14.2 km/h 16.7 km/h 74 % 0 mm
22:28 13.3 °C 8.9 °C 1020.5 hPa North 13.2 km/h 20.4 km/h 75 % 0 mm
22:33 13.2 °C 8.8 °C 1020.5 hPa SSW 12.6 km/h 16.7 km/h 75 % 0 mm
22:38 13.1 °C 9 °C 1020.5 hPa SSW 9.2 km/h 20.9 km/h 76 % 0 mm
22:43 13.1 °C 8.9 °C 1020.5 hPa South 10.3 km/h 18.5 km/h 76 % 0 mm
22:48 12.9 °C 9 °C 1020.9 hPa South 11.6 km/h 14.8 km/h 77 % 0 mm
22:53 12.9 °C 8.9 °C 1020.5 hPa South 13.8 km/h 24.1 km/h 77 % 0 mm
22:58 12.8 °C 9.1 °C 1020.5 hPa South 9.8 km/h 18.5 km/h 78 % 0 mm
23:03 12.7 °C 9 °C 1020.5 hPa South 10.9 km/h 18.5 km/h 78 % 0 mm
23:08 12.7 °C 8.9 °C 1020.5 hPa South 10.6 km/h 14.8 km/h 78 % 0 mm
23:13 12.6 °C 9 °C 1020.5 hPa South 6.9 km/h 13 km/h 79 % 0 mm
23:18 12.5 °C 8.9 °C 1020.5 hPa North 7.9 km/h 14.8 km/h 79 % 0 mm
23:23 12.4 °C 9.1 °C 1020.5 hPa South 9.7 km/h 16.7 km/h 80 % 0 mm
23:28 12.3 °C 9 °C 1020.5 hPa South 7.1 km/h 17.7 km/h 80 % 0 mm
23:33 12.3 °C 9.1 °C 1020.5 hPa South 10.5 km/h 14.8 km/h 81 % 0 mm
23:38 12.2 °C 9.1 °C 1020.5 hPa South 10.3 km/h 19.3 km/h 81 % 0 mm
23:43 12.1 °C 8.9 °C 1020.5 hPa South 12.1 km/h 20.4 km/h 81 % 0 mm
23:48 12.1 °C 9.1 °C 1020.5 hPa North 10.8 km/h 18.5 km/h 82 % 0 mm
23:53 12 °C 9 °C 1020.5 hPa North 7.6 km/h 9.3 km/h 82 % 0 mm
23:58 11.9 °C 8.9 °C 1020.5 hPa South 11.7 km/h 14.8 km/h 82 % 0 mm
Ararat Weather
Compliments of Weather Underground - 2.5 mb
Click here to send mail.


ABOUT

Live weather data from Ararat, Victoria, Australia, 3377
Data uploaded from Cumulus every 5 minutes to Weather Underground.
This site then downloads the raw data for formatting and display.
Metric and imperial data can be displayed. Graphs and historical data available.
Includes Sun and Moon times and rain image live from BOM.

Check out Ararat Weather on Facebook, Twitter and Google +

Help support ongoing costs by checking out the ads





Follow @AraratWeather